createdAt,value
2023-07-02T00:00:07.441Z,18.80
2023-07-02T00:02:34.427Z,18.70
2023-07-02T00:05:01.219Z,18.60
2023-07-02T00:07:28.201Z,18.60
2023-07-02T00:09:55.428Z,18.50
2023-07-02T00:12:22.271Z,18.50
2023-07-02T00:14:49.072Z,18.40
2023-07-02T00:17:15.896Z,18.40
2023-07-02T00:19:43.062Z,18.30
2023-07-02T00:22:10.639Z,18.20
2023-07-02T00:24:38.294Z,18.20
2023-07-02T00:27:05.474Z,18.10
2023-07-02T00:29:32.296Z,18.00
2023-07-02T00:31:59.034Z,17.90
2023-07-02T00:34:26.201Z,17.90
2023-07-02T00:36:53.344Z,17.80
2023-07-02T00:39:20.207Z,17.80
2023-07-02T00:41:50.184Z,17.70
2023-07-02T00:44:17.050Z,17.70
2023-07-02T00:46:43.920Z,17.70
2023-07-02T00:49:11.267Z,17.60
2023-07-02T00:51:38.696Z,17.60
2023-07-02T00:54:05.903Z,17.60
2023-07-02T00:56:32.784Z,17.60
2023-07-02T00:59:00.269Z,17.50
2023-07-02T01:01:29.583Z,17.50
2023-07-02T01:04:01.239Z,17.50
2023-07-02T01:06:29.943Z,17.50
2023-07-02T01:08:59.158Z,17.40
2023-07-02T01:11:34.997Z,17.40
2023-07-02T01:14:09.910Z,17.40
2023-07-02T01:16:38.409Z,17.40
2023-07-02T01:19:07.984Z,17.40
2023-07-02T01:21:34.862Z,17.40
2023-07-02T01:24:03.016Z,17.30
2023-07-02T01:26:35.026Z,17.30
2023-07-02T01:29:16.936Z,17.30
2023-07-02T01:31:43.936Z,17.30
2023-07-02T01:34:10.968Z,17.30
2023-07-02T01:36:38.613Z,17.30
2023-07-02T01:39:05.823Z,17.30
2023-07-02T01:41:52.198Z,17.20
2023-07-02T01:44:20.056Z,17.20
2023-07-02T01:46:50.687Z,17.20
2023-07-02T01:49:21.117Z,17.20
2023-07-02T01:51:55.627Z,17.10
2023-07-02T01:54:23.712Z,17.10
2023-07-02T01:56:50.641Z,17.10
2023-07-02T01:59:20.304Z,17.00
2023-07-02T02:01:47.251Z,17.00
2023-07-02T02:04:14.612Z,17.00
2023-07-02T02:06:42.161Z,16.90
2023-07-02T02:09:12.820Z,16.90
2023-07-02T02:11:42.033Z,16.90
2023-07-02T02:14:08.767Z,16.90
2023-07-02T02:16:35.805Z,16.80
2023-07-02T02:19:03.916Z,16.80
2023-07-02T02:21:31.030Z,16.80
2023-07-02T02:23:57.854Z,16.80
2023-07-02T02:26:26.490Z,16.70
2023-07-02T02:28:53.699Z,16.70
2023-07-02T02:31:20.564Z,16.70
2023-07-02T02:33:47.536Z,16.70
2023-07-02T02:36:14.336Z,16.70
2023-07-02T02:38:41.139Z,16.60
2023-07-02T02:41:09.530Z,16.60
2023-07-02T02:43:36.367Z,16.60
2023-07-02T02:46:03.187Z,16.50
2023-07-02T02:48:30.016Z,16.50
2023-07-02T02:50:56.775Z,16.50
2023-07-02T02:53:23.559Z,16.50
2023-07-02T02:55:50.421Z,16.40
2023-07-02T02:58:17.194Z,16.40
2023-07-02T03:00:46.855Z,16.40
2023-07-02T03:03:14.589Z,16.30
2023-07-02T03:05:41.475Z,16.30
2023-07-02T03:08:08.200Z,16.30
2023-07-02T03:10:34.942Z,16.20
2023-07-02T03:13:01.696Z,16.20
2023-07-02T03:15:28.476Z,16.20
2023-07-02T03:17:55.499Z,16.20
2023-07-02T03:20:22.341Z,16.20
2023-07-02T03:22:49.174Z,16.10
2023-07-02T03:25:16.245Z,16.10
2023-07-02T03:27:43.194Z,16.10
2023-07-02T03:30:10.226Z,16.10
2023-07-02T03:32:37.098Z,16.00
2023-07-02T03:35:04.045Z,16.00
2023-07-02T03:37:30.970Z,16.00
2023-07-02T03:39:59.765Z,15.90
2023-07-02T03:42:26.537Z,15.90
2023-07-02T03:44:53.303Z,15.90
2023-07-02T03:47:20.749Z,15.80
2023-07-02T03:49:49.041Z,15.80
2023-07-02T03:52:15.866Z,15.80
2023-07-02T03:54:42.644Z,15.70
2023-07-02T03:57:09.368Z,15.70
2023-07-02T03:59:36.392Z,15.70
2023-07-02T04:02:03.283Z,15.70
2023-07-02T04:04:30.208Z,15.60
2023-07-02T04:06:57.194Z,15.60
2023-07-02T04:09:24.063Z,15.60
2023-07-02T04:11:50.829Z,15.50
2023-07-02T04:14:17.631Z,15.60
2023-07-02T04:16:46.166Z,15.50
2023-07-02T04:19:13.231Z,15.50
2023-07-02T04:21:40.114Z,15.50
2023-07-02T04:24:07.142Z,15.50
2023-07-02T04:26:45.632Z,15.50
2023-07-02T04:29:21.518Z,15.40
2023-07-02T04:31:48.318Z,15.40
2023-07-02T04:34:15.395Z,15.40
2023-07-02T04:36:42.235Z,15.40
2023-07-02T04:39:10.029Z,15.40
2023-07-02T04:41:36.808Z,15.40
2023-07-02T04:44:03.756Z,15.40
2023-07-02T04:46:31.000Z,15.40
2023-07-02T04:48:58.059Z,15.40
2023-07-02T04:51:24.922Z,15.40
2023-07-02T04:53:51.731Z,15.40
2023-07-02T04:56:18.473Z,15.50
2023-07-02T04:58:45.295Z,15.50
2023-07-02T05:01:12.241Z,15.60
2023-07-02T05:03:40.038Z,15.60
2023-07-02T05:06:06.975Z,15.60
2023-07-02T05:08:33.719Z,15.70
2023-07-02T05:11:00.539Z,15.80
2023-07-02T05:13:27.382Z,15.80
2023-07-02T05:15:54.155Z,15.80
2023-07-02T05:18:20.968Z,15.90
2023-07-02T05:20:48.049Z,15.90
2023-07-02T05:23:15.184Z,16.00
2023-07-02T05:25:41.959Z,16.00
2023-07-02T05:28:08.734Z,16.10
2023-07-02T05:30:35.482Z,16.10
2023-07-02T05:33:02.304Z,16.10
2023-07-02T05:35:29.184Z,16.20
2023-07-02T05:37:55.933Z,16.20
2023-07-02T05:40:22.696Z,16.20
2023-07-02T05:42:49.445Z,16.30
2023-07-02T05:45:16.349Z,16.40
2023-07-02T05:47:43.188Z,16.40
2023-07-02T05:50:10.538Z,16.40
2023-07-02T05:52:37.323Z,16.50
2023-07-02T05:55:04.827Z,16.50
2023-07-02T05:57:31.577Z,16.60
2023-07-02T05:59:58.453Z,16.70
2023-07-02T06:02:25.312Z,16.70
2023-07-02T06:04:52.279Z,16.70
2023-07-02T06:07:19.180Z,16.80
2023-07-02T06:09:45.948Z,16.80
2023-07-02T06:12:13.319Z,16.90
2023-07-02T06:14:40.034Z,16.90
2023-07-02T06:17:08.749Z,17.00
2023-07-02T06:19:36.638Z,17.00
2023-07-02T06:22:03.592Z,17.10
2023-07-02T06:24:30.387Z,17.10
2023-07-02T06:26:57.132Z,17.10
2023-07-02T06:29:24.844Z,17.20
2023-07-02T06:31:52.224Z,17.20
2023-07-02T06:34:19.002Z,17.20
2023-07-02T06:36:45.780Z,17.30
2023-07-02T06:39:12.621Z,17.40
2023-07-02T06:41:39.443Z,17.40
2023-07-02T06:44:06.246Z,17.40
2023-07-02T06:46:33.967Z,17.50
2023-07-02T06:49:00.841Z,17.60
2023-07-02T06:51:28.429Z,17.60
2023-07-02T06:53:55.270Z,17.70
2023-07-02T06:56:22.162Z,17.70
2023-07-02T06:58:49.237Z,17.70
2023-07-02T07:01:16.050Z,17.80
2023-07-02T07:03:42.978Z,17.80
2023-07-02T07:06:09.763Z,17.80
2023-07-02T07:08:40.068Z,17.90
2023-07-02T07:11:06.841Z,17.90
2023-07-02T07:13:33.744Z,17.90
2023-07-02T07:16:00.565Z,17.90
2023-07-02T07:18:29.697Z,17.90
2023-07-02T07:20:58.113Z,17.90
2023-07-02T07:23:24.886Z,18.00
2023-07-02T07:25:52.110Z,18.00
2023-07-02T07:28:18.871Z,18.00
2023-07-02T07:30:45.865Z,18.00
2023-07-02T07:33:12.790Z,18.10
2023-07-02T07:35:39.574Z,18.10
2023-07-02T07:38:06.354Z,18.10
2023-07-02T07:40:33.123Z,18.20
2023-07-02T07:42:59.905Z,18.20
2023-07-02T07:45:26.727Z,18.20
2023-07-02T07:47:53.577Z,18.30
2023-07-02T07:50:20.402Z,18.40
2023-07-02T07:52:47.269Z,18.40
2023-07-02T07:55:14.516Z,18.40
2023-07-02T07:57:41.424Z,18.50
2023-07-02T08:00:09.120Z,18.50
2023-07-02T08:02:36.007Z,18.50
2023-07-02T08:05:04.116Z,18.60
2023-07-02T08:07:34.300Z,18.60
2023-07-02T08:10:01.392Z,18.60
2023-07-02T08:12:29.996Z,18.70
2023-07-02T08:14:57.676Z,18.60
2023-07-02T08:17:24.577Z,18.60
2023-07-02T08:19:51.398Z,18.70
2023-07-02T08:22:18.387Z,18.70
2023-07-02T08:24:45.170Z,18.70
2023-07-02T08:27:14.900Z,18.70
2023-07-02T08:29:41.793Z,18.80
2023-07-02T08:32:09.004Z,18.80
2023-07-02T08:34:35.857Z,18.90
2023-07-02T08:37:02.823Z,18.90
2023-07-02T08:39:29.563Z,18.90
2023-07-02T08:41:56.404Z,18.90
2023-07-02T08:44:23.640Z,18.90
2023-07-02T08:46:52.248Z,18.90
2023-07-02T08:49:19.260Z,18.90
2023-07-02T08:51:47.153Z,18.90
2023-07-02T08:54:15.264Z,18.90
2023-07-02T08:56:42.820Z,19.00
2023-07-02T08:59:10.445Z,19.00
2023-07-02T09:01:47.232Z,19.00
2023-07-02T09:04:25.690Z,19.10
2023-07-02T09:07:06.702Z,19.10
2023-07-02T09:09:33.774Z,19.20
2023-07-02T09:12:01.736Z,19.20
2023-07-02T09:14:31.227Z,19.20
2023-07-02T09:17:10.140Z,19.20
2023-07-02T09:19:37.941Z,19.30
2023-07-02T09:22:05.075Z,19.30
2023-07-02T09:24:33.112Z,19.40
2023-07-02T09:27:01.924Z,19.40
2023-07-02T09:29:33.872Z,19.40
2023-07-02T09:34:37.027Z,19.50
2023-07-02T09:37:06.200Z,19.60
2023-07-02T09:39:35.174Z,19.70
2023-07-02T09:42:03.869Z,19.80
2023-07-02T09:44:31.937Z,19.90
2023-07-02T09:47:06.052Z,20.00
2023-07-02T09:49:34.935Z,20.00
2023-07-02T09:52:09.931Z,20.00
2023-07-02T09:54:37.438Z,20.00
2023-07-02T09:57:05.396Z,20.00
2023-07-02T09:59:32.179Z,20.00
2023-07-02T10:01:59.479Z,20.00
2023-07-02T10:04:26.865Z,20.00
2023-07-02T10:06:58.191Z,20.10
2023-07-02T10:09:39.197Z,20.10
2023-07-02T10:12:27.492Z,20.20
2023-07-02T10:14:56.711Z,20.20
2023-07-02T10:17:37.663Z,20.30
2023-07-02T10:20:09.699Z,20.30
2023-07-02T10:22:48.460Z,20.30
2023-07-02T10:25:29.292Z,20.40
2023-07-02T10:27:56.771Z,20.50
2023-07-02T10:30:54.445Z,20.60
2023-07-02T10:33:21.956Z,20.60
2023-07-02T10:35:50.795Z,20.70
2023-07-02T10:38:22.881Z,20.80
2023-07-02T10:40:58.117Z,20.70
2023-07-02T10:43:30.806Z,20.70
2023-07-02T10:46:01.114Z,20.70
2023-07-02T10:48:28.355Z,20.70
2023-07-02T10:50:55.223Z,20.80
2023-07-02T10:53:23.079Z,20.80
2023-07-02T10:55:58.551Z,20.90
2023-07-02T10:58:26.336Z,21.00
2023-07-02T11:00:53.588Z,21.00
2023-07-02T11:03:27.829Z,21.10
2023-07-02T11:05:55.532Z,21.10
2023-07-02T11:08:24.315Z,21.20
2023-07-02T11:10:51.982Z,21.20
2023-07-02T11:13:20.784Z,21.30
2023-07-02T11:15:49.086Z,21.30
2023-07-02T11:18:19.008Z,21.20
2023-07-02T11:20:47.970Z,21.10
2023-07-02T11:23:23.570Z,21.10
2023-07-02T11:25:59.892Z,21.00
2023-07-02T11:28:28.254Z,20.90
2023-07-02T11:30:55.456Z,21.00
2023-07-02T11:33:42.544Z,21.00
2023-07-02T11:36:21.395Z,21.00
2023-07-02T11:38:48.624Z,21.00
2023-07-02T11:41:15.492Z,20.90
2023-07-02T11:43:42.358Z,21.00
2023-07-02T11:46:09.241Z,21.10
2023-07-02T11:48:36.063Z,21.10
2023-07-02T11:51:02.878Z,21.10
2023-07-02T11:53:29.691Z,21.20
2023-07-02T11:55:56.478Z,21.20
2023-07-02T11:58:23.275Z,21.20
2023-07-02T12:00:50.026Z,21.20
2023-07-02T12:03:16.867Z,21.30
2023-07-02T12:05:43.612Z,21.20
2023-07-02T12:08:10.508Z,21.20
2023-07-02T12:10:38.970Z,21.20
2023-07-02T12:13:06.115Z,21.20
2023-07-02T12:15:32.876Z,21.30
2023-07-02T12:17:59.641Z,21.40
2023-07-02T12:20:26.421Z,21.40
2023-07-02T12:22:53.186Z,21.50
2023-07-02T12:25:20.097Z,21.60
2023-07-02T12:27:46.891Z,21.70
2023-07-02T12:30:18.157Z,21.70
2023-07-02T12:32:45.678Z,21.80
2023-07-02T12:35:13.134Z,21.80
2023-07-02T12:37:47.792Z,21.80
2023-07-02T12:40:15.252Z,21.90
2023-07-02T12:42:43.464Z,22.00
2023-07-02T12:45:12.327Z,22.00
2023-07-02T12:47:43.227Z,22.10
2023-07-02T12:50:11.395Z,22.20
2023-07-02T12:52:38.373Z,22.20
2023-07-02T12:55:05.603Z,22.30
2023-07-02T12:57:32.433Z,22.40
2023-07-02T12:59:59.262Z,22.50
2023-07-02T13:02:26.260Z,22.60
2023-07-02T13:04:53.357Z,22.50
2023-07-02T13:07:20.534Z,22.60
2023-07-02T13:09:47.331Z,22.60
2023-07-02T13:12:14.206Z,22.60
2023-07-02T13:14:40.946Z,22.70
2023-07-02T13:17:07.767Z,22.60
2023-07-02T13:19:35.182Z,22.70
2023-07-02T13:22:02.113Z,22.80
2023-07-02T13:24:34.400Z,22.80
2023-07-02T13:27:03.562Z,22.90
2023-07-02T13:29:30.324Z,23.10
2023-07-02T13:31:57.556Z,23.30
2023-07-02T13:34:24.416Z,23.40
2023-07-02T13:36:51.162Z,23.60
2023-07-02T13:39:17.907Z,23.80
2023-07-02T13:41:44.784Z,23.90
2023-07-02T13:44:11.723Z,24.00
2023-07-02T13:46:38.709Z,24.10
2023-07-02T13:49:05.559Z,24.30
2023-07-02T13:51:32.401Z,24.40
2023-07-02T13:53:59.185Z,24.50
2023-07-02T13:56:25.968Z,24.60
2023-07-02T13:58:58.606Z,24.60
2023-07-02T14:01:25.811Z,24.50
2023-07-02T14:03:54.646Z,24.40
2023-07-02T14:06:21.982Z,24.20
2023-07-02T14:08:49.298Z,24.10
2023-07-02T14:11:16.491Z,23.90
2023-07-02T14:13:43.364Z,23.90
2023-07-02T14:16:10.308Z,23.80
2023-07-02T14:18:37.079Z,23.70
2023-07-02T14:21:04.050Z,23.50
2023-07-02T14:23:30.835Z,23.30
2023-07-02T14:25:57.635Z,23.20
2023-07-02T14:28:27.052Z,23.10
2023-07-02T14:31:00.910Z,22.90
2023-07-02T14:33:29.671Z,22.80
2023-07-02T14:35:56.590Z,22.70
2023-07-02T14:38:23.728Z,22.60
2023-07-02T14:40:51.594Z,22.50
2023-07-02T14:43:19.305Z,22.40
2023-07-02T14:45:49.526Z,22.40
2023-07-02T14:48:17.497Z,22.40
2023-07-02T14:50:50.822Z,22.30
2023-07-02T14:53:18.787Z,22.20
2023-07-02T14:55:46.689Z,22.20
2023-07-02T14:58:14.767Z,22.20
2023-07-02T15:00:49.110Z,22.20
2023-07-02T15:03:16.735Z,22.10
2023-07-02T15:05:44.255Z,22.20
2023-07-02T15:08:13.932Z,22.10
2023-07-02T15:10:41.579Z,22.10
2023-07-02T15:13:09.108Z,22.10
2023-07-02T15:15:37.276Z,22.10
2023-07-02T15:18:05.133Z,22.10
2023-07-02T15:20:32.012Z,22.20
2023-07-02T15:22:58.760Z,22.20
2023-07-02T15:25:25.579Z,22.10
2023-07-02T15:27:53.005Z,22.20
2023-07-02T15:30:20.299Z,22.20
2023-07-02T15:32:47.211Z,22.10
2023-07-02T15:35:13.996Z,22.10
2023-07-02T15:37:42.901Z,22.10
2023-07-02T15:40:10.964Z,22.10
2023-07-02T15:42:37.897Z,22.00
2023-07-02T15:45:05.452Z,22.00
2023-07-02T15:47:33.905Z,22.00
2023-07-02T15:50:01.070Z,22.10
2023-07-02T15:52:28.035Z,22.10
2023-07-02T15:54:54.890Z,22.10
2023-07-02T15:57:21.692Z,22.10
2023-07-02T15:59:48.460Z,22.10
2023-07-02T16:02:15.237Z,22.20
2023-07-02T16:04:46.129Z,22.20
2023-07-02T16:07:13.966Z,22.20
2023-07-02T16:09:41.153Z,22.20
2023-07-02T16:12:09.025Z,22.20
2023-07-02T16:14:38.287Z,22.20
2023-07-02T16:17:07.333Z,22.30
2023-07-02T16:19:34.347Z,22.30
2023-07-02T16:22:01.337Z,22.20
2023-07-02T16:24:31.640Z,22.20
2023-07-02T16:26:59.365Z,22.20
2023-07-02T16:29:29.420Z,22.20
2023-07-02T16:31:58.055Z,22.20
2023-07-02T16:34:26.403Z,22.20
2023-07-02T16:36:53.534Z,22.20
2023-07-02T16:39:21.131Z,22.10
2023-07-02T16:41:49.350Z,22.10
2023-07-02T16:44:18.151Z,22.10
2023-07-02T16:46:46.620Z,22.10
2023-07-02T16:49:13.796Z,22.10
2023-07-02T16:51:43.092Z,22.00
2023-07-02T16:54:15.934Z,22.00
2023-07-02T16:56:49.157Z,22.00
2023-07-02T16:59:17.502Z,21.90
2023-07-02T17:01:49.746Z,21.90
2023-07-02T17:04:17.470Z,21.90
2023-07-02T17:06:49.516Z,21.80
2023-07-02T17:09:34.265Z,21.80
2023-07-02T17:12:07.376Z,21.70
2023-07-02T17:14:37.482Z,21.70
2023-07-02T17:17:33.821Z,21.60
2023-07-02T17:20:01.066Z,21.60
2023-07-02T17:22:30.988Z,21.50
2023-07-02T17:25:01.241Z,21.50
2023-07-02T17:27:30.072Z,21.60
2023-07-02T17:29:58.085Z,21.60
2023-07-02T17:32:25.646Z,21.50
2023-07-02T17:34:52.841Z,21.50
2023-07-02T17:37:21.440Z,21.50
2023-07-02T17:39:49.580Z,21.50
2023-07-02T17:42:17.828Z,21.50
2023-07-02T17:44:46.204Z,21.50
2023-07-02T17:47:15.724Z,21.50
2023-07-02T17:49:45.193Z,21.50
2023-07-02T17:52:15.193Z,21.40
2023-07-02T17:54:48.095Z,21.40
2023-07-02T17:57:16.794Z,21.40
2023-07-02T17:59:44.279Z,21.40
2023-07-02T18:02:14.150Z,21.30
2023-07-02T18:04:41.402Z,21.30
2023-07-02T18:07:19.874Z,21.30
2023-07-02T18:09:49.503Z,21.30
2023-07-02T18:12:18.868Z,21.20
2023-07-02T18:14:46.584Z,21.20
2023-07-02T18:17:14.356Z,21.20
2023-07-02T18:19:41.190Z,21.20
2023-07-02T18:22:08.438Z,21.10
2023-07-02T18:24:40.397Z,21.10
2023-07-02T18:27:09.372Z,21.00
2023-07-02T18:29:38.881Z,21.00
2023-07-02T18:32:07.594Z,21.00
2023-07-02T18:34:37.605Z,21.00
2023-07-02T18:37:06.189Z,21.00
2023-07-02T18:39:34.990Z,20.90
2023-07-02T18:42:11.861Z,20.90
2023-07-02T18:44:39.203Z,20.90
2023-07-02T18:47:12.554Z,20.90
2023-07-02T18:49:40.588Z,20.80
2023-07-02T18:52:10.637Z,20.80
2023-07-02T18:54:38.013Z,20.80
2023-07-02T18:57:06.639Z,20.80
2023-07-02T18:59:34.706Z,20.70
2023-07-02T19:02:04.006Z,20.70
2023-07-02T19:04:31.740Z,20.70
2023-07-02T19:06:59.150Z,20.70
2023-07-02T19:09:26.508Z,20.70
2023-07-02T19:11:53.306Z,20.70
2023-07-02T19:14:20.102Z,20.60
2023-07-02T19:16:48.042Z,20.60
2023-07-02T19:19:15.162Z,20.60
2023-07-02T19:21:42.022Z,20.50
2023-07-02T19:24:08.836Z,20.50
2023-07-02T19:26:36.973Z,20.50
2023-07-02T19:29:03.826Z,20.50
2023-07-02T19:31:30.666Z,20.50
2023-07-02T19:33:57.485Z,20.50
2023-07-02T19:36:24.290Z,20.50
2023-07-02T19:38:51.032Z,20.40
2023-07-02T19:41:17.802Z,20.40
2023-07-02T19:43:45.059Z,20.40
2023-07-02T19:46:11.992Z,20.40
2023-07-02T19:48:38.977Z,20.40
2023-07-02T19:51:06.660Z,20.30
2023-07-02T19:53:35.262Z,20.30
2023-07-02T19:56:09.348Z,20.30
2023-07-02T19:58:36.892Z,20.30
2023-07-02T20:01:04.192Z,20.30
2023-07-02T20:03:32.313Z,20.20
2023-07-02T20:05:59.593Z,20.20
2023-07-02T20:08:26.416Z,20.10
2023-07-02T20:10:53.545Z,20.10
2023-07-02T20:13:20.599Z,20.10
2023-07-02T20:15:48.898Z,20.10
2023-07-02T20:18:16.888Z,20.10
2023-07-02T20:20:43.879Z,20.10
2023-07-02T20:23:10.632Z,20.00
2023-07-02T20:28:08.827Z,20.00
2023-07-02T20:30:35.675Z,20.00
2023-07-02T20:33:02.640Z,20.00
2023-07-02T20:35:29.621Z,20.00
2023-07-02T20:37:56.556Z,19.90
2023-07-02T20:40:24.176Z,19.90
2023-07-02T20:42:53.481Z,19.90
2023-07-02T20:45:22.118Z,19.90
2023-07-02T20:47:48.984Z,19.80
2023-07-02T20:50:16.598Z,19.80
2023-07-02T20:52:45.649Z,19.80
2023-07-02T20:55:12.924Z,19.80
2023-07-02T20:57:39.676Z,19.80
2023-07-02T21:00:12.674Z,19.80
2023-07-02T21:02:40.683Z,19.80
2023-07-02T21:05:08.931Z,19.80
2023-07-02T21:07:36.117Z,19.70
2023-07-02T21:10:04.244Z,19.70
2023-07-02T21:12:31.012Z,19.70
2023-07-02T21:14:57.993Z,19.70
2023-07-02T21:17:24.865Z,19.70
2023-07-02T21:19:51.702Z,19.60
2023-07-02T21:22:18.494Z,19.70
2023-07-02T21:24:50.439Z,19.60
2023-07-02T21:27:17.775Z,19.60
2023-07-02T21:29:44.557Z,19.60
2023-07-02T21:32:11.391Z,19.60
2023-07-02T21:34:38.206Z,19.60
2023-07-02T21:37:05.102Z,19.50
2023-07-02T21:39:31.876Z,19.50
2023-07-02T21:41:58.705Z,19.50
2023-07-02T21:44:25.593Z,19.50
2023-07-02T21:46:53.632Z,19.50
2023-07-02T21:49:20.480Z,19.60
2023-07-02T21:51:47.273Z,19.50
2023-07-02T21:54:14.133Z,19.50
2023-07-02T21:56:40.886Z,19.50
2023-07-02T21:59:07.757Z,19.50
2023-07-02T22:01:34.591Z,19.50
2023-07-02T22:04:01.493Z,19.50
2023-07-02T22:06:28.250Z,19.40
2023-07-02T22:08:54.991Z,19.40
2023-07-02T22:11:24.131Z,19.40
2023-07-02T22:13:52.186Z,19.40
2023-07-02T22:16:19.168Z,19.40
2023-07-02T22:18:45.987Z,19.40
2023-07-02T22:21:12.919Z,19.30
2023-07-02T22:23:39.744Z,19.30
2023-07-02T22:26:06.982Z,19.30
2023-07-02T22:28:33.736Z,19.30
2023-07-02T22:31:03.234Z,19.30
2023-07-02T22:33:30.103Z,19.30
2023-07-02T22:35:56.845Z,19.20
2023-07-02T22:38:23.739Z,19.30
2023-07-02T22:40:50.486Z,19.30
2023-07-02T22:43:17.228Z,19.20
2023-07-02T22:45:44.094Z,19.20
2023-07-02T22:48:10.887Z,19.20
2023-07-02T22:50:38.395Z,19.20
2023-07-02T22:53:05.386Z,19.20
2023-07-02T22:55:32.201Z,19.20
2023-07-02T22:57:59.265Z,19.20
2023-07-02T23:00:26.581Z,19.20
2023-07-02T23:02:53.795Z,19.20
2023-07-02T23:05:23.531Z,19.10
2023-07-02T23:07:50.645Z,19.10
2023-07-02T23:10:17.852Z,19.10
2023-07-02T23:12:49.480Z,19.10
2023-07-02T23:15:18.775Z,19.10
2023-07-02T23:17:48.252Z,19.00
2023-07-02T23:20:15.780Z,19.00
2023-07-02T23:22:43.788Z,19.00
2023-07-02T23:25:15.985Z,19.00
2023-07-02T23:27:43.640Z,19.00
2023-07-02T23:30:14.630Z,19.00
2023-07-02T23:32:42.139Z,19.00
2023-07-02T23:35:11.444Z,19.00
2023-07-02T23:37:38.844Z,19.00
2023-07-02T23:40:07.849Z,19.00
2023-07-02T23:42:35.803Z,19.00
2023-07-02T23:45:07.921Z,19.00
2023-07-02T23:47:35.448Z,19.00
2023-07-02T23:50:02.523Z,19.00
2023-07-02T23:52:29.380Z,18.90
2023-07-02T23:54:56.142Z,18.90
2023-07-02T23:57:22.900Z,18.90
2023-07-02T23:59:49.682Z,18.90
